sensor_id;sensor_type;location;lat;lon;timestamp;temperature;humidity
28763;DHT22;15918;51.270;6.522;2023-05-07T00:02:21;19.90;67.70
28763;DHT22;15918;51.270;6.522;2023-05-07T00:04:48;19.90;67.00
28763;DHT22;15918;51.270;6.522;2023-05-07T00:07:14;19.80;67.00
28763;DHT22;15918;51.270;6.522;2023-05-07T00:09:42;19.80;66.90
28763;DHT22;15918;51.270;6.522;2023-05-07T00:12:08;19.80;66.90
28763;DHT22;15918;51.270;6.522;2023-05-07T00:14:34;19.80;66.90
28763;DHT22;15918;51.270;6.522;2023-05-07T00:16:59;19.90;67.00
28763;DHT22;15918;51.270;6.522;2023-05-07T00:19:25;19.90;67.00
28763;DHT22;15918;51.270;6.522;2023-05-07T00:21:50;19.80;66.90
28763;DHT22;15918;51.270;6.522;2023-05-07T00:24:18;19.90;67.00
28763;DHT22;15918;51.270;6.522;2023-05-07T00:26:44;19.80;67.00
28763;DHT22;15918;51.270;6.522;2023-05-07T00:29:10;19.80;66.90
28763;DHT22;15918;51.270;6.522;2023-05-07T00:31:35;19.80;66.90
28763;DHT22;15918;51.270;6.522;2023-05-07T00:34:01;19.80;67.00
28763;DHT22;15918;51.270;6.522;2023-05-07T00:36:26;19.80;67.00
28763;DHT22;15918;51.270;6.522;2023-05-07T00:38:54;19.80;67.70
28763;DHT22;15918;51.270;6.522;2023-05-07T00:41:20;19.80;67.00
28763;DHT22;15918;51.270;6.522;2023-05-07T00:43:46;19.80;67.10
28763;DHT22;15918;51.270;6.522;2023-05-07T00:46:13;19.80;67.10
28763;DHT22;15918;51.270;6.522;2023-05-07T00:48:39;19.80;67.10
28763;DHT22;15918;51.270;6.522;2023-05-07T00:51:05;19.80;67.10
28763;DHT22;15918;51.270;6.522;2023-05-07T00:53:31;19.70;67.00
28763;DHT22;15918;51.270;6.522;2023-05-07T00:55:56;19.70;67.00
28763;DHT22;15918;51.270;6.522;2023-05-07T00:58:23;19.80;67.00
28763;DHT22;15918;51.270;6.522;2023-05-07T01:00:49;19.70;66.90
28763;DHT22;15918;51.270;6.522;2023-05-07T01:03:15;19.70;66.90
28763;DHT22;15918;51.270;6.522;2023-05-07T01:05:41;19.70;67.00
28763;DHT22;15918;51.270;6.522;2023-05-07T01:08:08;19.70;67.00
28763;DHT22;15918;51.270;6.522;2023-05-07T01:10:34;19.60;66.90
28763;DHT22;15918;51.270;6.522;2023-05-07T01:13:00;19.60;67.00
28763;DHT22;15918;51.270;6.522;2023-05-07T01:15:26;19.60;67.00
28763;DHT22;15918;51.270;6.522;2023-05-07T01:17:52;19.60;67.10
28763;DHT22;15918;51.270;6.522;2023-05-07T01:20:19;19.60;67.10
28763;DHT22;15918;51.270;6.522;2023-05-07T01:22:45;19.60;67.10
28763;DHT22;15918;51.270;6.522;2023-05-07T01:25:11;19.60;67.10
28763;DHT22;15918;51.270;6.522;2023-05-07T01:27:37;19.60;67.10
28763;DHT22;15918;51.270;6.522;2023-05-07T01:30:06;19.60;67.10
28763;DHT22;15918;51.270;6.522;2023-05-07T01:32:43;19.60;67.10
28763;DHT22;15918;51.270;6.522;2023-05-07T01:35:15;19.60;67.10
28763;DHT22;15918;51.270;6.522;2023-05-07T01:37:43;19.60;67.10
28763;DHT22;15918;51.270;6.522;2023-05-07T01:40:47;19.50;67.00
28763;DHT22;15918;51.270;6.522;2023-05-07T01:43:12;19.60;67.00
28763;DHT22;15918;51.270;6.522;2023-05-07T01:45:39;19.50;67.10
28763;DHT22;15918;51.270;6.522;2023-05-07T01:48:06;19.50;67.00
28763;DHT22;15918;51.270;6.522;2023-05-07T01:50:32;19.50;67.00
28763;DHT22;15918;51.270;6.522;2023-05-07T01:52:58;19.50;67.00
28763;DHT22;15918;51.270;6.522;2023-05-07T01:55:24;19.50;67.00
28763;DHT22;15918;51.270;6.522;2023-05-07T01:57:50;19.50;67.00
28763;DHT22;15918;51.270;6.522;2023-05-07T02:00:16;19.50;67.00
28763;DHT22;15918;51.270;6.522;2023-05-07T02:02:42;19.50;67.00
28763;DHT22;15918;51.270;6.522;2023-05-07T02:05:08;19.50;67.00
28763;DHT22;15918;51.270;6.522;2023-05-07T02:07:34;19.50;67.00
28763;DHT22;15918;51.270;6.522;2023-05-07T02:09:59;19.50;67.00
28763;DHT22;15918;51.270;6.522;2023-05-07T02:12:25;19.50;67.00
28763;DHT22;15918;51.270;6.522;2023-05-07T02:14:50;19.50;67.00
28763;DHT22;15918;51.270;6.522;2023-05-07T02:17:16;19.50;67.00
28763;DHT22;15918;51.270;6.522;2023-05-07T02:19:41;19.40;67.00
28763;DHT22;15918;51.270;6.522;2023-05-07T02:22:09;19.40;66.90
28763;DHT22;15918;51.270;6.522;2023-05-07T02:24:35;19.40;67.60
28763;DHT22;15918;51.270;6.522;2023-05-07T02:27:01;19.40;66.80
28763;DHT22;15918;51.270;6.522;2023-05-07T02:29:27;19.40;66.90
28763;DHT22;15918;51.270;6.522;2023-05-07T02:31:53;19.40;67.00
28763;DHT22;15918;51.270;6.522;2023-05-07T02:34:19;19.40;66.90
28763;DHT22;15918;51.270;6.522;2023-05-07T02:36:44;19.40;66.90
28763;DHT22;15918;51.270;6.522;2023-05-07T02:39:11;19.40;66.90
28763;DHT22;15918;51.270;6.522;2023-05-07T02:41:37;19.40;67.00
28763;DHT22;15918;51.270;6.522;2023-05-07T02:44:03;19.40;67.00
28763;DHT22;15918;51.270;6.522;2023-05-07T02:46:28;19.40;67.00
28763;DHT22;15918;51.270;6.522;2023-05-07T02:48:54;19.40;67.00
28763;DHT22;15918;51.270;6.522;2023-05-07T02:51:21;19.40;67.00
28763;DHT22;15918;51.270;6.522;2023-05-07T02:53:47;19.40;67.00
28763;DHT22;15918;51.270;6.522;2023-05-07T02:56:13;19.40;67.00
28763;DHT22;15918;51.270;6.522;2023-05-07T02:58:38;19.30;66.90
28763;DHT22;15918;51.270;6.522;2023-05-07T03:01:09;19.40;67.00
28763;DHT22;15918;51.270;6.522;2023-05-07T03:03:35;19.30;66.90
28763;DHT22;15918;51.270;6.522;2023-05-07T03:06:01;19.40;66.90
28763;DHT22;15918;51.270;6.522;2023-05-07T03:08:27;19.30;66.90
28763;DHT22;15918;51.270;6.522;2023-05-07T03:10:52;19.30;66.90
28763;DHT22;15918;51.270;6.522;2023-05-07T03:13:18;19.30;67.00
28763;DHT22;15918;51.270;6.522;2023-05-07T03:15:44;19.30;67.00
28763;DHT22;15918;51.270;6.522;2023-05-07T03:18:09;19.30;67.00
28763;DHT22;15918;51.270;6.522;2023-05-07T03:20:35;19.30;67.00
28763;DHT22;15918;51.270;6.522;2023-05-07T03:23:01;19.30;67.00
28763;DHT22;15918;51.270;6.522;2023-05-07T03:25:27;19.20;67.00
28763;DHT22;15918;51.270;6.522;2023-05-07T03:27:53;19.20;67.00
28763;DHT22;15918;51.270;6.522;2023-05-07T03:30:18;19.30;67.10
28763;DHT22;15918;51.270;6.522;2023-05-07T03:32:44;19.20;67.10
28763;DHT22;15918;51.270;6.522;2023-05-07T03:35:10;19.20;67.10
28763;DHT22;15918;51.270;6.522;2023-05-07T03:37:35;19.30;67.20
28763;DHT22;15918;51.270;6.522;2023-05-07T03:40:01;19.20;67.20
28763;DHT22;15918;51.270;6.522;2023-05-07T03:42:28;19.20;67.20
28763;DHT22;15918;51.270;6.522;2023-05-07T03:44:54;19.20;67.10
28763;DHT22;15918;51.270;6.522;2023-05-07T03:47:20;19.20;67.10
28763;DHT22;15918;51.270;6.522;2023-05-07T03:49:45;19.20;67.20
28763;DHT22;15918;51.270;6.522;2023-05-07T03:52:11;19.20;67.10
28763;DHT22;15918;51.270;6.522;2023-05-07T03:54:36;19.20;67.10
28763;DHT22;15918;51.270;6.522;2023-05-07T03:57:02;19.20;67.10
28763;DHT22;15918;51.270;6.522;2023-05-07T03:59:27;19.20;67.20
28763;DHT22;15918;51.270;6.522;2023-05-07T04:01:53;19.20;67.20
28763;DHT22;15918;51.270;6.522;2023-05-07T04:04:19;19.20;67.20
28763;DHT22;15918;51.270;6.522;2023-05-07T04:06:45;19.20;67.20
28763;DHT22;15918;51.270;6.522;2023-05-07T04:09:11;19.20;67.20
28763;DHT22;15918;51.270;6.522;2023-05-07T04:11:36;19.20;67.20
28763;DHT22;15918;51.270;6.522;2023-05-07T04:14:02;19.20;67.20
28763;DHT22;15918;51.270;6.522;2023-05-07T04:16:27;19.20;67.20
28763;DHT22;15918;51.270;6.522;2023-05-07T04:18:53;19.10;67.10
28763;DHT22;15918;51.270;6.522;2023-05-07T04:21:19;19.10;67.10
28763;DHT22;15918;51.270;6.522;2023-05-07T04:23:46;19.10;67.10
28763;DHT22;15918;51.270;6.522;2023-05-07T04:26:12;19.10;67.90
28763;DHT22;15918;51.270;6.522;2023-05-07T04:28:38;19.10;67.10
28763;DHT22;15918;51.270;6.522;2023-05-07T04:31:04;19.10;67.10
28763;DHT22;15918;51.270;6.522;2023-05-07T04:33:31;19.10;67.20
28763;DHT22;15918;51.270;6.522;2023-05-07T04:35:56;19.10;67.90
28763;DHT22;15918;51.270;6.522;2023-05-07T04:38:22;19.10;67.20
28763;DHT22;15918;51.270;6.522;2023-05-07T04:40:49;19.10;67.20
28763;DHT22;15918;51.270;6.522;2023-05-07T04:43:14;19.10;67.20
28763;DHT22;15918;51.270;6.522;2023-05-07T04:45:41;19.00;67.20
28763;DHT22;15918;51.270;6.522;2023-05-07T04:48:08;19.10;67.20
28763;DHT22;15918;51.270;6.522;2023-05-07T04:50:34;19.00;67.20
28763;DHT22;15918;51.270;6.522;2023-05-07T04:52:59;19.00;67.20
28763;DHT22;15918;51.270;6.522;2023-05-07T04:55:25;19.00;67.30
28763;DHT22;15918;51.270;6.522;2023-05-07T04:57:52;19.00;67.30
28763;DHT22;15918;51.270;6.522;2023-05-07T05:00:18;19.00;67.40
28763;DHT22;15918;51.270;6.522;2023-05-07T05:02:45;19.10;67.40
28763;DHT22;15918;51.270;6.522;2023-05-07T05:05:10;19.00;67.40
28763;DHT22;15918;51.270;6.522;2023-05-07T05:07:36;19.00;67.40
28763;DHT22;15918;51.270;6.522;2023-05-07T05:10:02;19.00;67.40
28763;DHT22;15918;51.270;6.522;2023-05-07T05:12:29;19.00;67.50
28763;DHT22;15918;51.270;6.522;2023-05-07T05:14:54;19.00;67.50
28763;DHT22;15918;51.270;6.522;2023-05-07T05:17:20;19.00;67.50
28763;DHT22;15918;51.270;6.522;2023-05-07T05:19:45;19.00;67.50
28763;DHT22;15918;51.270;6.522;2023-05-07T05:22:11;19.00;68.20
28763;DHT22;15918;51.270;6.522;2023-05-07T05:24:37;19.00;67.50
28763;DHT22;15918;51.270;6.522;2023-05-07T05:27:02;19.00;67.50
28763;DHT22;15918;51.270;6.522;2023-05-07T05:29:28;19.00;67.60
28763;DHT22;15918;51.270;6.522;2023-05-07T05:31:53;19.00;67.60
28763;DHT22;15918;51.270;6.522;2023-05-07T05:34:19;19.00;67.60
28763;DHT22;15918;51.270;6.522;2023-05-07T05:36:45;19.00;67.60
28763;DHT22;15918;51.270;6.522;2023-05-07T05:39:10;19.00;67.60
28763;DHT22;15918;51.270;6.522;2023-05-07T05:41:36;19.00;67.60
28763;DHT22;15918;51.270;6.522;2023-05-07T05:44:01;19.00;67.70
28763;DHT22;15918;51.270;6.522;2023-05-07T05:46:27;19.00;67.70
28763;DHT22;15918;51.270;6.522;2023-05-07T05:48:53;19.00;67.70
28763;DHT22;15918;51.270;6.522;2023-05-07T05:51:18;19.00;67.70
28763;DHT22;15918;51.270;6.522;2023-05-07T05:53:45;19.00;67.70
28763;DHT22;15918;51.270;6.522;2023-05-07T05:56:10;19.00;67.80
28763;DHT22;15918;51.270;6.522;2023-05-07T05:58:36;19.00;67.70
28763;DHT22;15918;51.270;6.522;2023-05-07T06:01:02;19.00;67.70
28763;DHT22;15918;51.270;6.522;2023-05-07T06:03:28;19.00;67.80
28763;DHT22;15918;51.270;6.522;2023-05-07T06:05:53;19.00;67.80
28763;DHT22;15918;51.270;6.522;2023-05-07T06:08:19;19.00;67.90
28763;DHT22;15918;51.270;6.522;2023-05-07T06:10:45;19.00;68.00
28763;DHT22;15918;51.270;6.522;2023-05-07T06:13:10;19.00;68.10
28763;DHT22;15918;51.270;6.522;2023-05-07T06:15:36;19.00;68.20
28763;DHT22;15918;51.270;6.522;2023-05-07T06:18:02;19.00;69.10
28763;DHT22;15918;51.270;6.522;2023-05-07T06:20:27;19.00;68.30
28763;DHT22;15918;51.270;6.522;2023-05-07T06:22:53;19.00;68.50
28763;DHT22;15918;51.270;6.522;2023-05-07T06:25:19;19.10;68.30
28763;DHT22;15918;51.270;6.522;2023-05-07T06:27:44;19.00;68.20
28763;DHT22;15918;51.270;6.522;2023-05-07T06:30:10;19.00;68.20
28763;DHT22;15918;51.270;6.522;2023-05-07T06:32:36;19.00;68.20
28763;DHT22;15918;51.270;6.522;2023-05-07T06:35:02;19.00;68.10
28763;DHT22;15918;51.270;6.522;2023-05-07T06:37:27;19.00;68.00
28763;DHT22;15918;51.270;6.522;2023-05-07T06:39:53;19.00;68.00
28763;DHT22;15918;51.270;6.522;2023-05-07T06:42:18;19.10;68.20
28763;DHT22;15918;51.270;6.522;2023-05-07T06:44:44;19.10;68.20
28763;DHT22;15918;51.270;6.522;2023-05-07T06:47:10;19.10;68.20
28763;DHT22;15918;51.270;6.522;2023-05-07T06:49:36;19.10;68.30
28763;DHT22;15918;51.270;6.522;2023-05-07T06:52:01;19.10;68.20
28763;DHT22;15918;51.270;6.522;2023-05-07T06:54:28;19.10;68.10
28763;DHT22;15918;51.270;6.522;2023-05-07T06:56:54;19.10;67.90
28763;DHT22;15918;51.270;6.522;2023-05-07T06:59:19;19.10;67.90
28763;DHT22;15918;51.270;6.522;2023-05-07T07:01:45;19.20;68.00
28763;DHT22;15918;51.270;6.522;2023-05-07T07:04:11;19.20;68.00
28763;DHT22;15918;51.270;6.522;2023-05-07T07:06:36;19.20;68.00
28763;DHT22;15918;51.270;6.522;2023-05-07T07:09:02;19.20;67.90
28763;DHT22;15918;51.270;6.522;2023-05-07T07:11:27;19.20;67.90
28763;DHT22;15918;51.270;6.522;2023-05-07T07:13:53;19.20;67.80
28763;DHT22;15918;51.270;6.522;2023-05-07T07:16:20;19.20;67.70
28763;DHT22;15918;51.270;6.522;2023-05-07T07:18:46;19.30;67.50
28763;DHT22;15918;51.270;6.522;2023-05-07T07:21:11;19.30;67.30
28763;DHT22;15918;51.270;6.522;2023-05-07T07:23:37;19.30;67.20
28763;DHT22;15918;51.270;6.522;2023-05-07T07:26:03;19.40;67.20
28763;DHT22;15918;51.270;6.522;2023-05-07T07:28:28;19.40;67.20
28763;DHT22;15918;51.270;6.522;2023-05-07T07:30:54;19.40;67.10
28763;DHT22;15918;51.270;6.522;2023-05-07T07:33:19;19.50;67.10
28763;DHT22;15918;51.270;6.522;2023-05-07T07:35:45;19.50;67.10
28763;DHT22;15918;51.270;6.522;2023-05-07T07:38:10;19.40;67.00
28763;DHT22;15918;51.270;6.522;2023-05-07T07:40:36;19.50;66.90
28763;DHT22;15918;51.270;6.522;2023-05-07T07:43:02;19.60;66.90
28763;DHT22;15918;51.270;6.522;2023-05-07T07:45:28;19.60;66.70
28763;DHT22;15918;51.270;6.522;2023-05-07T07:47:53;19.60;66.80
28763;DHT22;15918;51.270;6.522;2023-05-07T07:50:19;19.60;66.80
28763;DHT22;15918;51.270;6.522;2023-05-07T07:52:44;19.70;66.80
28763;DHT22;15918;51.270;6.522;2023-05-07T07:55:10;19.70;66.70
28763;DHT22;15918;51.270;6.522;2023-05-07T07:57:37;19.70;66.60
28763;DHT22;15918;51.270;6.522;2023-05-07T08:00:03;19.70;66.50
28763;DHT22;15918;51.270;6.522;2023-05-07T08:02:31;19.70;66.40
28763;DHT22;15918;51.270;6.522;2023-05-07T08:04:56;19.80;66.40
28763;DHT22;15918;51.270;6.522;2023-05-07T08:07:22;19.80;66.30
28763;DHT22;15918;51.270;6.522;2023-05-07T08:09:48;19.80;66.20
28763;DHT22;15918;51.270;6.522;2023-05-07T08:12:14;19.80;66.10
28763;DHT22;15918;51.270;6.522;2023-05-07T08:14:40;19.90;66.00
28763;DHT22;15918;51.270;6.522;2023-05-07T08:17:06;19.90;66.00
28763;DHT22;15918;51.270;6.522;2023-05-07T08:19:32;19.90;65.90
28763;DHT22;15918;51.270;6.522;2023-05-07T08:21:57;20.00;65.80
28763;DHT22;15918;51.270;6.522;2023-05-07T08:24:23;20.00;65.70
28763;DHT22;15918;51.270;6.522;2023-05-07T08:26:49;20.00;65.80
28763;DHT22;15918;51.270;6.522;2023-05-07T08:29:15;20.00;65.80
28763;DHT22;15918;51.270;6.522;2023-05-07T08:31:40;20.10;65.80
28763;DHT22;15918;51.270;6.522;2023-05-07T08:34:06;20.10;65.70
28763;DHT22;15918;51.270;6.522;2023-05-07T08:36:32;20.10;65.70
28763;DHT22;15918;51.270;6.522;2023-05-07T08:38:57;20.10;65.80
28763;DHT22;15918;51.270;6.522;2023-05-07T08:41:23;20.20;65.80
28763;DHT22;15918;51.270;6.522;2023-05-07T08:43:50;20.20;65.80
28763;DHT22;15918;51.270;6.522;2023-05-07T08:46:22;20.20;65.80
28763;DHT22;15918;51.270;6.522;2023-05-07T08:48:49;20.30;65.80
28763;DHT22;15918;51.270;6.522;2023-05-07T08:51:17;20.30;65.70
28763;DHT22;15918;51.270;6.522;2023-05-07T08:53:43;20.30;65.70
28763;DHT22;15918;51.270;6.522;2023-05-07T08:56:09;20.30;65.60
28763;DHT22;15918;51.270;6.522;2023-05-07T08:58:35;20.30;65.50
28763;DHT22;15918;51.270;6.522;2023-05-07T09:01:09;20.40;65.40
28763;DHT22;15918;51.270;6.522;2023-05-07T09:03:37;20.40;65.20
28763;DHT22;15918;51.270;6.522;2023-05-07T09:06:03;20.40;65.20
28763;DHT22;15918;51.270;6.522;2023-05-07T09:08:29;20.40;65.10
28763;DHT22;15918;51.270;6.522;2023-05-07T09:10:54;20.50;65.00
28763;DHT22;15918;51.270;6.522;2023-05-07T09:13:20;20.50;64.90
28763;DHT22;15918;51.270;6.522;2023-05-07T09:15:46;20.50;64.80
28763;DHT22;15918;51.270;6.522;2023-05-07T09:18:13;20.50;64.70
28763;DHT22;15918;51.270;6.522;2023-05-07T09:20:39;20.50;64.70
28763;DHT22;15918;51.270;6.522;2023-05-07T09:23:06;20.50;64.60
28763;DHT22;15918;51.270;6.522;2023-05-07T09:25:33;20.60;64.60
28763;DHT22;15918;51.270;6.522;2023-05-07T09:28:00;20.50;64.40
28763;DHT22;15918;51.270;6.522;2023-05-07T09:30:30;20.60;64.30
28763;DHT22;15918;51.270;6.522;2023-05-07T09:33:00;20.60;64.10
28763;DHT22;15918;51.270;6.522;2023-05-07T09:35:27;20.60;64.10
28763;DHT22;15918;51.270;6.522;2023-05-07T09:37:53;20.60;64.10
28763;DHT22;15918;51.270;6.522;2023-05-07T09:40:29;20.70;64.20
28763;DHT22;15918;51.270;6.522;2023-05-07T09:42:56;20.70;64.10
28763;DHT22;15918;51.270;6.522;2023-05-07T09:45:25;20.70;64.00
28763;DHT22;15918;51.270;6.522;2023-05-07T09:47:54;20.70;63.90
28763;DHT22;15918;51.270;6.522;2023-05-07T09:50:29;20.80;63.90
28763;DHT22;15918;51.270;6.522;2023-05-07T09:52:56;20.80;63.80
28763;DHT22;15918;51.270;6.522;2023-05-07T09:55:22;20.80;63.60
28763;DHT22;15918;51.270;6.522;2023-05-07T09:57:52;20.80;63.40
28763;DHT22;15918;51.270;6.522;2023-05-07T10:00:22;20.80;63.10
28763;DHT22;15918;51.270;6.522;2023-05-07T10:02:49;20.90;62.90
28763;DHT22;15918;51.270;6.522;2023-05-07T10:05:18;20.90;63.00
28763;DHT22;15918;51.270;6.522;2023-05-07T10:07:44;20.90;63.00
28763;DHT22;15918;51.270;6.522;2023-05-07T10:10:10;20.90;62.80
28763;DHT22;15918;51.270;6.522;2023-05-07T10:12:36;20.90;62.70
28763;DHT22;15918;51.270;6.522;2023-05-07T10:15:13;20.90;62.60
28763;DHT22;15918;51.270;6.522;2023-05-07T10:17:40;21.00;62.60
28763;DHT22;15918;51.270;6.522;2023-05-07T10:20:07;21.00;62.70
28763;DHT22;15918;51.270;6.522;2023-05-07T10:22:47;21.00;62.50
28763;DHT22;15918;51.270;6.522;2023-05-07T10:25:26;21.00;62.30
28763;DHT22;15918;51.270;6.522;2023-05-07T10:27:57;21.10;62.20
28763;DHT22;15918;51.270;6.522;2023-05-07T10:33:03;21.10;62.40
28763;DHT22;15918;51.270;6.522;2023-05-07T10:35:36;21.10;62.20
28763;DHT22;15918;51.270;6.522;2023-05-07T10:38:03;21.10;61.80
28763;DHT22;15918;51.270;6.522;2023-05-07T10:40:30;21.20;61.90
28763;DHT22;15918;51.270;6.522;2023-05-07T10:43:00;21.20;61.90
28763;DHT22;15918;51.270;6.522;2023-05-07T10:45:27;21.20;61.60
28763;DHT22;15918;51.270;6.522;2023-05-07T10:50:35;21.30;60.40
28763;DHT22;15918;51.270;6.522;2023-05-07T10:55:42;21.40;60.70
28763;DHT22;15918;51.270;6.522;2023-05-07T10:58:24;21.40;61.00
28763;DHT22;15918;51.270;6.522;2023-05-07T11:01:01;21.40;60.60
28763;DHT22;15918;51.270;6.522;2023-05-07T11:03:28;21.40;60.00
28763;DHT22;15918;51.270;6.522;2023-05-07T11:06:14;21.50;59.30
28763;DHT22;15918;51.270;6.522;2023-05-07T11:08:58;21.50;58.80
28763;DHT22;15918;51.270;6.522;2023-05-07T11:11:49;21.50;58.90
28763;DHT22;15918;51.270;6.522;2023-05-07T11:17:07;21.50;59.10
28763;DHT22;15918;51.270;6.522;2023-05-07T11:19:53;21.50;59.10
28763;DHT22;15918;51.270;6.522;2023-05-07T11:22:46;21.60;59.10
28763;DHT22;15918;51.270;6.522;2023-05-07T11:25:18;21.60;59.40
28763;DHT22;15918;51.270;6.522;2023-05-07T11:27:46;21.50;59.50
28763;DHT22;15918;51.270;6.522;2023-05-07T11:30:17;21.60;59.60
28763;DHT22;15918;51.270;6.522;2023-05-07T11:32:47;21.60;59.20
28763;DHT22;15918;51.270;6.522;2023-05-07T11:35:15;21.60;59.10
28763;DHT22;15918;51.270;6.522;2023-05-07T11:37:42;21.60;59.10
28763;DHT22;15918;51.270;6.522;2023-05-07T11:40:10;21.70;58.90
28763;DHT22;15918;51.270;6.522;2023-05-07T11:42:38;21.60;58.90
28763;DHT22;15918;51.270;6.522;2023-05-07T11:45:06;21.70;58.60
28763;DHT22;15918;51.270;6.522;2023-05-07T11:47:32;21.70;58.60
28763;DHT22;15918;51.270;6.522;2023-05-07T11:50:03;21.70;58.50
28763;DHT22;15918;51.270;6.522;2023-05-07T11:52:29;21.70;58.50
28763;DHT22;15918;51.270;6.522;2023-05-07T11:54:56;21.70;58.50
28763;DHT22;15918;51.270;6.522;2023-05-07T11:57:25;21.80;58.50
28763;DHT22;15918;51.270;6.522;2023-05-07T11:59:58;21.70;58.50
28763;DHT22;15918;51.270;6.522;2023-05-07T12:02:24;21.80;58.30
28763;DHT22;15918;51.270;6.522;2023-05-07T12:04:51;21.70;58.20
28763;DHT22;15918;51.270;6.522;2023-05-07T12:07:17;21.80;58.70
28763;DHT22;15918;51.270;6.522;2023-05-07T12:09:46;21.80;58.00
28763;DHT22;15918;51.270;6.522;2023-05-07T12:12:13;21.80;58.10
28763;DHT22;15918;51.270;6.522;2023-05-07T12:14:44;21.80;58.20
28763;DHT22;15918;51.270;6.522;2023-05-07T12:17:12;21.80;58.30
28763;DHT22;15918;51.270;6.522;2023-05-07T12:19:40;21.80;58.40
28763;DHT22;15918;51.270;6.522;2023-05-07T12:22:10;21.80;58.50
28763;DHT22;15918;51.270;6.522;2023-05-07T12:24:49;21.80;58.30
28763;DHT22;15918;51.270;6.522;2023-05-07T12:27:15;21.80;58.30
28763;DHT22;15918;51.270;6.522;2023-05-07T12:29:49;21.80;58.50
28763;DHT22;15918;51.270;6.522;2023-05-07T12:32:19;21.90;58.60
28763;DHT22;15918;51.270;6.522;2023-05-07T12:34:46;21.90;58.60
28763;DHT22;15918;51.270;6.522;2023-05-07T12:37:12;21.90;58.50
28763;DHT22;15918;51.270;6.522;2023-05-07T12:39:43;21.90;58.50
28763;DHT22;15918;51.270;6.522;2023-05-07T12:42:15;21.90;58.50
28763;DHT22;15918;51.270;6.522;2023-05-07T12:44:41;21.90;58.50
28763;DHT22;15918;51.270;6.522;2023-05-07T12:47:07;21.90;58.40
28763;DHT22;15918;51.270;6.522;2023-05-07T12:49:35;21.90;58.30
28763;DHT22;15918;51.270;6.522;2023-05-07T12:52:03;21.90;58.30
28763;DHT22;15918;51.270;6.522;2023-05-07T12:54:37;21.90;58.50
28763;DHT22;15918;51.270;6.522;2023-05-07T12:57:08;22.00;58.60
28763;DHT22;15918;51.270;6.522;2023-05-07T12:59:39;21.90;58.60
28763;DHT22;15918;51.270;6.522;2023-05-07T13:02:05;21.90;58.50
28763;DHT22;15918;51.270;6.522;2023-05-07T13:04:31;21.90;58.40
28763;DHT22;15918;51.270;6.522;2023-05-07T13:06:57;22.00;58.50
28763;DHT22;15918;51.270;6.522;2023-05-07T13:09:22;21.90;58.50
28763;DHT22;15918;51.270;6.522;2023-05-07T13:11:48;21.90;58.50
28763;DHT22;15918;51.270;6.522;2023-05-07T13:14:13;22.00;58.50
28763;DHT22;15918;51.270;6.522;2023-05-07T13:16:39;22.00;58.60
28763;DHT22;15918;51.270;6.522;2023-05-07T13:19:05;22.00;58.60
28763;DHT22;15918;51.270;6.522;2023-05-07T13:21:30;22.00;58.60
28763;DHT22;15918;51.270;6.522;2023-05-07T13:23:58;22.00;58.60
28763;DHT22;15918;51.270;6.522;2023-05-07T13:26:27;22.10;58.70
28763;DHT22;15918;51.270;6.522;2023-05-07T13:28:53;22.00;58.70
28763;DHT22;15918;51.270;6.522;2023-05-07T13:31:19;22.10;58.70
28763;DHT22;15918;51.270;6.522;2023-05-07T13:33:46;22.00;58.70
28763;DHT22;15918;51.270;6.522;2023-05-07T13:36:12;22.00;58.70
28763;DHT22;15918;51.270;6.522;2023-05-07T13:38:37;22.10;58.80
28763;DHT22;15918;51.270;6.522;2023-05-07T13:41:03;22.10;58.80
28763;DHT22;15918;51.270;6.522;2023-05-07T13:43:28;22.10;58.70
28763;DHT22;15918;51.270;6.522;2023-05-07T13:45:54;22.10;58.80
28763;DHT22;15918;51.270;6.522;2023-05-07T13:48:20;22.10;58.90
28763;DHT22;15918;51.270;6.522;2023-05-07T13:50:45;22.10;58.90
28763;DHT22;15918;51.270;6.522;2023-05-07T13:53:11;22.00;58.90
28763;DHT22;15918;51.270;6.522;2023-05-07T13:55:36;22.10;59.00
28763;DHT22;15918;51.270;6.522;2023-05-07T13:58:02;22.10;59.10
28763;DHT22;15918;51.270;6.522;2023-05-07T14:00:29;22.10;59.30
28763;DHT22;15918;51.270;6.522;2023-05-07T14:02:55;22.10;59.40
28763;DHT22;15918;51.270;6.522;2023-05-07T14:05:22;22.10;59.50
28763;DHT22;15918;51.270;6.522;2023-05-07T14:07:51;22.10;59.70
28763;DHT22;15918;51.270;6.522;2023-05-07T14:10:18;22.10;59.90
28763;DHT22;15918;51.270;6.522;2023-05-07T14:12:44;22.10;60.10
28763;DHT22;15918;51.270;6.522;2023-05-07T14:15:10;22.10;60.40
28763;DHT22;15918;51.270;6.522;2023-05-07T14:17:36;22.10;60.60
28763;DHT22;15918;51.270;6.522;2023-05-07T14:20:02;22.00;60.80
28763;DHT22;15918;51.270;6.522;2023-05-07T14:22:28;22.10;60.80
28763;DHT22;15918;51.270;6.522;2023-05-07T14:24:53;22.10;61.10
28763;DHT22;15918;51.270;6.522;2023-05-07T14:27:19;22.10;61.10
28763;DHT22;15918;51.270;6.522;2023-05-07T14:29:44;22.10;61.90
28763;DHT22;15918;51.270;6.522;2023-05-07T14:32:11;22.10;61.10
28763;DHT22;15918;51.270;6.522;2023-05-07T14:34:36;22.10;61.10
28763;DHT22;15918;51.270;6.522;2023-05-07T14:37:02;22.10;61.00
28763;DHT22;15918;51.270;6.522;2023-05-07T14:39:28;22.10;61.00
28763;DHT22;15918;51.270;6.522;2023-05-07T14:41:54;22.10;60.90
28763;DHT22;15918;51.270;6.522;2023-05-07T14:44:21;22.10;61.10
28763;DHT22;15918;51.270;6.522;2023-05-07T14:46:47;22.10;61.10
28763;DHT22;15918;51.270;6.522;2023-05-07T14:49:14;22.10;61.00
28763;DHT22;15918;51.270;6.522;2023-05-07T14:51:43;22.00;60.80
28763;DHT22;15918;51.270;6.522;2023-05-07T14:54:09;22.00;60.90
28763;DHT22;15918;51.270;6.522;2023-05-07T14:56:35;22.00;60.90
28763;DHT22;15918;51.270;6.522;2023-05-07T14:59:02;22.00;61.00
28763;DHT22;15918;51.270;6.522;2023-05-07T15:01:28;21.90;61.10
28763;DHT22;15918;51.270;6.522;2023-05-07T15:03:54;21.90;61.30
28763;DHT22;15918;51.270;6.522;2023-05-07T15:06:21;21.90;61.40
28763;DHT22;15918;51.270;6.522;2023-05-07T15:08:47;21.90;61.60
28763;DHT22;15918;51.270;6.522;2023-05-07T15:11:14;21.90;61.90
28763;DHT22;15918;51.270;6.522;2023-05-07T15:13:41;21.90;62.30
28763;DHT22;15918;51.270;6.522;2023-05-07T15:16:06;21.80;62.70
28763;DHT22;15918;51.270;6.522;2023-05-07T15:18:32;21.80;63.10
28763;DHT22;15918;51.270;6.522;2023-05-07T15:20:57;21.70;63.50
28763;DHT22;15918;51.270;6.522;2023-05-07T15:23:23;21.70;63.80
28763;DHT22;15918;51.270;6.522;2023-05-07T15:25:49;21.70;64.00
28763;DHT22;15918;51.270;6.522;2023-05-07T15:28:14;21.70;64.50
28763;DHT22;15918;51.270;6.522;2023-05-07T15:30:40;21.70;64.90
28763;DHT22;15918;51.270;6.522;2023-05-07T15:33:05;21.70;65.10
28763;DHT22;15918;51.270;6.522;2023-05-07T15:35:31;21.60;65.30
28763;DHT22;15918;51.270;6.522;2023-05-07T15:37:57;21.60;65.20
28763;DHT22;15918;51.270;6.522;2023-05-07T15:40:22;21.60;65.20